sensor_id;sensor_type;location;lat;lon;timestamp;temperature;humidity
55064;DHT22;40963;52.168;21.296;2023-02-27T00:02:15;1.00;99.90
55064;DHT22;40963;52.168;21.296;2023-02-27T00:04:40;1.00;99.90
55064;DHT22;40963;52.168;21.296;2023-02-27T00:07:06;1.00;99.90
55064;DHT22;40963;52.168;21.296;2023-02-27T00:09:33;1.00;99.90
55064;DHT22;40963;52.168;21.296;2023-02-27T00:11:59;1.00;99.90
55064;DHT22;40963;52.168;21.296;2023-02-27T00:14:25;1.00;99.90
55064;DHT22;40963;52.168;21.296;2023-02-27T00:16:50;1.00;99.90
55064;DHT22;40963;52.168;21.296;2023-02-27T00:19:16;1.00;99.90
55064;DHT22;40963;52.168;21.296;2023-02-27T00:21:42;1.00;99.90
55064;DHT22;40963;52.168;21.296;2023-02-27T00:24:09;1.00;99.90
55064;DHT22;40963;52.168;21.296;2023-02-27T00:26:35;1.10;99.90
55064;DHT22;40963;52.168;21.296;2023-02-27T00:29:02;1.00;99.90
55064;DHT22;40963;52.168;21.296;2023-02-27T00:31:28;1.00;99.90
55064;DHT22;40963;52.168;21.296;2023-02-27T00:33:55;1.00;99.90
55064;DHT22;40963;52.168;21.296;2023-02-27T00:36:21;1.00;99.90
55064;DHT22;40963;52.168;21.296;2023-02-27T00:38:47;1.00;99.90
55064;DHT22;40963;52.168;21.296;2023-02-27T00:41:13;0.90;99.90
55064;DHT22;40963;52.168;21.296;2023-02-27T00:43:38;0.90;99.90
55064;DHT22;40963;52.168;21.296;2023-02-27T00:46:04;0.90;99.90
55064;DHT22;40963;52.168;21.296;2023-02-27T00:48:30;0.90;99.90
55064;DHT22;40963;52.168;21.296;2023-02-27T00:50:56;0.90;99.90
55064;DHT22;40963;52.168;21.296;2023-02-27T00:53:22;0.90;99.90
55064;DHT22;40963;52.168;21.296;2023-02-27T00:55:49;0.90;99.90
55064;DHT22;40963;52.168;21.296;2023-02-27T00:58:14;0.80;99.90
55064;DHT22;40963;52.168;21.296;2023-02-27T01:00:40;0.90;99.90
55064;DHT22;40963;52.168;21.296;2023-02-27T01:03:06;0.80;99.90
55064;DHT22;40963;52.168;21.296;2023-02-27T01:05:32;0.90;99.90
55064;DHT22;40963;52.168;21.296;2023-02-27T01:07:57;0.80;99.90
55064;DHT22;40963;52.168;21.296;2023-02-27T01:10:23;0.80;99.90
55064;DHT22;40963;52.168;21.296;2023-02-27T01:12:49;0.90;99.90
55064;DHT22;40963;52.168;21.296;2023-02-27T01:15:14;0.80;99.90
55064;DHT22;40963;52.168;21.296;2023-02-27T01:17:40;0.80;99.90
55064;DHT22;40963;52.168;21.296;2023-02-27T01:20:07;0.80;99.90
55064;DHT22;40963;52.168;21.296;2023-02-27T01:22:34;0.80;99.90
55064;DHT22;40963;52.168;21.296;2023-02-27T01:25:00;0.80;99.90
55064;DHT22;40963;52.168;21.296;2023-02-27T01:27:26;0.90;99.90
55064;DHT22;40963;52.168;21.296;2023-02-27T01:29:52;0.80;99.90
55064;DHT22;40963;52.168;21.296;2023-02-27T01:32:17;0.90;99.90
55064;DHT22;40963;52.168;21.296;2023-02-27T01:34:43;0.90;99.90
55064;DHT22;40963;52.168;21.296;2023-02-27T01:37:09;0.90;99.90
55064;DHT22;40963;52.168;21.296;2023-02-27T01:39:35;0.90;99.90
55064;DHT22;40963;52.168;21.296;2023-02-27T01:42:01;0.90;99.90
55064;DHT22;40963;52.168;21.296;2023-02-27T01:44:29;0.90;99.90
55064;DHT22;40963;52.168;21.296;2023-02-27T01:46:55;0.80;99.90
55064;DHT22;40963;52.168;21.296;2023-02-27T01:49:24;0.90;99.90
55064;DHT22;40963;52.168;21.296;2023-02-27T01:51:55;0.90;99.90
55064;DHT22;40963;52.168;21.296;2023-02-27T01:54:27;0.80;99.90
55064;DHT22;40963;52.168;21.296;2023-02-27T01:56:54;0.90;99.90
55064;DHT22;40963;52.168;21.296;2023-02-27T01:59:20;0.80;99.90
55064;DHT22;40963;52.168;21.296;2023-02-27T02:01:46;0.90;99.90
55064;DHT22;40963;52.168;21.296;2023-02-27T02:04:26;0.80;99.90
55064;DHT22;40963;52.168;21.296;2023-02-27T02:07:04;0.80;99.90
55064;DHT22;40963;52.168;21.296;2023-02-27T02:09:35;0.80;99.90
55064;DHT22;40963;52.168;21.296;2023-02-27T02:12:03;0.80;99.90
55064;DHT22;40963;52.168;21.296;2023-02-27T02:14:29;0.80;99.90
55064;DHT22;40963;52.168;21.296;2023-02-27T02:17:07;0.80;99.90
55064;DHT22;40963;52.168;21.296;2023-02-27T02:23:28;0.80;99.90
55064;DHT22;40963;52.168;21.296;2023-02-27T02:32:00;0.80;99.90
55064;DHT22;40963;52.168;21.296;2023-02-27T02:37:43;0.80;99.90
55064;DHT22;40963;52.168;21.296;2023-02-27T02:43:18;0.80;99.90
55064;DHT22;40963;52.168;21.296;2023-02-27T02:46:12;0.80;99.90
55064;DHT22;40963;52.168;21.296;2023-02-27T02:48:47;0.80;99.90
55064;DHT22;40963;52.168;21.296;2023-02-27T02:51:38;0.80;99.90
55064;DHT22;40963;52.168;21.296;2023-02-27T02:56:52;0.80;99.90
55064;DHT22;40963;52.168;21.296;2023-02-27T02:59:27;0.80;99.90
55064;DHT22;40963;52.168;21.296;2023-02-27T03:02:02;0.80;99.90
55064;DHT22;40963;52.168;21.296;2023-02-27T03:04:58;0.80;99.90
55064;DHT22;40963;52.168;21.296;2023-02-27T03:07:39;0.80;99.90
55064;DHT22;40963;52.168;21.296;2023-02-27T03:10:26;0.80;99.90
55064;DHT22;40963;52.168;21.296;2023-02-27T03:13:02;0.80;99.90
55064;DHT22;40963;52.168;21.296;2023-02-27T03:15:35;0.80;99.90
55064;DHT22;40963;52.168;21.296;2023-02-27T03:18:07;0.80;99.90
55064;DHT22;40963;52.168;21.296;2023-02-27T03:20:41;0.80;99.90
55064;DHT22;40963;52.168;21.296;2023-02-27T03:23:16;0.80;99.90
55064;DHT22;40963;52.168;21.296;2023-02-27T03:25:43;0.70;99.90
55064;DHT22;40963;52.168;21.296;2023-02-27T03:28:15;0.70;99.90
55064;DHT22;40963;52.168;21.296;2023-02-27T03:31:19;0.70;99.90
55064;DHT22;40963;52.168;21.296;2023-02-27T03:33:50;0.70;99.90
55064;DHT22;40963;52.168;21.296;2023-02-27T03:38:59;0.60;99.90
55064;DHT22;40963;52.168;21.296;2023-02-27T03:41:36;0.60;99.90
55064;DHT22;40963;52.168;21.296;2023-02-27T03:46:47;0.60;99.90
55064;DHT22;40963;52.168;21.296;2023-02-27T03:49:12;0.60;99.90
55064;DHT22;40963;52.168;21.296;2023-02-27T03:51:38;0.60;99.90
55064;DHT22;40963;52.168;21.296;2023-02-27T03:56:52;0.70;99.90
55064;DHT22;40963;52.168;21.296;2023-02-27T03:59:21;0.60;99.90
55064;DHT22;40963;52.168;21.296;2023-02-27T04:01:48;0.60;99.90
55064;DHT22;40963;52.168;21.296;2023-02-27T04:04:15;0.60;99.90
55064;DHT22;40963;52.168;21.296;2023-02-27T04:06:48;0.60;99.90
55064;DHT22;40963;52.168;21.296;2023-02-27T04:24:31;0.50;99.90
55064;DHT22;40963;52.168;21.296;2023-02-27T04:30:09;0.40;99.90
55064;DHT22;40963;52.168;21.296;2023-02-27T04:33:23;0.50;99.90
55064;DHT22;40963;52.168;21.296;2023-02-27T04:44:24;0.50;99.90
55064;DHT22;40963;52.168;21.296;2023-02-27T04:46:51;0.50;99.90
55064;DHT22;40963;52.168;21.296;2023-02-27T04:49:28;0.50;99.90
55064;DHT22;40963;52.168;21.296;2023-02-27T04:52:21;0.50;99.90
55064;DHT22;40963;52.168;21.296;2023-02-27T04:54:58;0.50;99.90
55064;DHT22;40963;52.168;21.296;2023-02-27T04:57:32;0.50;99.90
55064;DHT22;40963;52.168;21.296;2023-02-27T05:00:00;0.40;99.90
55064;DHT22;40963;52.168;21.296;2023-02-27T05:02:34;0.40;99.90
55064;DHT22;40963;52.168;21.296;2023-02-27T05:05:05;0.40;99.90
55064;DHT22;40963;52.168;21.296;2023-02-27T05:07:37;0.40;99.90
55064;DHT22;40963;52.168;21.296;2023-02-27T05:10:13;0.40;99.90
55064;DHT22;40963;52.168;21.296;2023-02-27T05:12:53;0.40;99.90
55064;DHT22;40963;52.168;21.296;2023-02-27T05:15:29;0.40;99.90
55064;DHT22;40963;52.168;21.296;2023-02-27T05:18:05;0.40;99.90
55064;DHT22;40963;52.168;21.296;2023-02-27T05:20:39;0.50;99.90
55064;DHT22;40963;52.168;21.296;2023-02-27T05:23:43;0.50;99.90
55064;DHT22;40963;52.168;21.296;2023-02-27T05:30:20;0.40;99.90
55064;DHT22;40963;52.168;21.296;2023-02-27T05:35:25;0.40;99.90
55064;DHT22;40963;52.168;21.296;2023-02-27T05:40:37;0.40;99.90
55064;DHT22;40963;52.168;21.296;2023-02-27T05:43:09;0.50;99.90
55064;DHT22;40963;52.168;21.296;2023-02-27T05:45:37;0.50;99.90
55064;DHT22;40963;52.168;21.296;2023-02-27T05:48:12;0.50;99.90
55064;DHT22;40963;52.168;21.296;2023-02-27T05:50:41;0.60;99.90
55064;DHT22;40963;52.168;21.296;2023-02-27T05:53:10;0.60;99.90
55064;DHT22;40963;52.168;21.296;2023-02-27T05:55:48;0.60;99.90
55064;DHT22;40963;52.168;21.296;2023-02-27T05:58:25;0.60;99.90
55064;DHT22;40963;52.168;21.296;2023-02-27T06:01:02;0.60;99.90
55064;DHT22;40963;52.168;21.296;2023-02-27T06:03:31;0.60;99.90
55064;DHT22;40963;52.168;21.296;2023-02-27T06:05:59;0.60;99.90
55064;DHT22;40963;52.168;21.296;2023-02-27T06:08:25;0.60;99.90
55064;DHT22;40963;52.168;21.296;2023-02-27T06:10:51;0.60;99.90
55064;DHT22;40963;52.168;21.296;2023-02-27T06:13:17;0.60;99.90
55064;DHT22;40963;52.168;21.296;2023-02-27T06:15:44;0.60;99.90
55064;DHT22;40963;52.168;21.296;2023-02-27T06:18:11;0.60;99.90
55064;DHT22;40963;52.168;21.296;2023-02-27T06:20:40;0.50;99.90
55064;DHT22;40963;52.168;21.296;2023-02-27T06:23:06;0.40;99.90
55064;DHT22;40963;52.168;21.296;2023-02-27T06:25:32;0.40;99.90
55064;DHT22;40963;52.168;21.296;2023-02-27T06:27:58;0.30;99.90
55064;DHT22;40963;52.168;21.296;2023-02-27T06:30:24;0.30;99.90
55064;DHT22;40963;52.168;21.296;2023-02-27T06:32:50;0.20;99.90
55064;DHT22;40963;52.168;21.296;2023-02-27T06:35:16;0.20;99.90
55064;DHT22;40963;52.168;21.296;2023-02-27T06:37:42;0.20;99.90
55064;DHT22;40963;52.168;21.296;2023-02-27T06:40:08;0.20;99.90
55064;DHT22;40963;52.168;21.296;2023-02-27T06:42:41;0.20;99.90
55064;DHT22;40963;52.168;21.296;2023-02-27T06:45:08;0.30;99.90
55064;DHT22;40963;52.168;21.296;2023-02-27T06:47:33;0.30;99.90
55064;DHT22;40963;52.168;21.296;2023-02-27T06:50:00;0.30;99.90
55064;DHT22;40963;52.168;21.296;2023-02-27T06:52:26;0.30;99.90
55064;DHT22;40963;52.168;21.296;2023-02-27T06:54:52;0.20;99.90
55064;DHT22;40963;52.168;21.296;2023-02-27T06:57:17;0.20;99.90
55064;DHT22;40963;52.168;21.296;2023-02-27T06:59:44;0.20;99.90
55064;DHT22;40963;52.168;21.296;2023-02-27T07:02:13;0.30;99.90
55064;DHT22;40963;52.168;21.296;2023-02-27T07:04:39;0.20;99.90
55064;DHT22;40963;52.168;21.296;2023-02-27T07:07:05;0.10;99.90
55064;DHT22;40963;52.168;21.296;2023-02-27T07:09:31;0.10;99.90
55064;DHT22;40963;52.168;21.296;2023-02-27T07:11:57;0.00;99.90
55064;DHT22;40963;52.168;21.296;2023-02-27T07:14:22;0.00;99.90
55064;DHT22;40963;52.168;21.296;2023-02-27T07:16:50;-0.10;99.90
55064;DHT22;40963;52.168;21.296;2023-02-27T07:19:19;-0.10;99.90
55064;DHT22;40963;52.168;21.296;2023-02-27T07:21:45;-0.10;99.90
55064;DHT22;40963;52.168;21.296;2023-02-27T07:24:11;-0.10;99.90
55064;DHT22;40963;52.168;21.296;2023-02-27T07:26:37;-0.10;99.90
55064;DHT22;40963;52.168;21.296;2023-02-27T07:29:03;-0.10;99.40
55064;DHT22;40963;52.168;21.296;2023-02-27T07:31:29;-0.20;98.00
55064;DHT22;40963;52.168;21.296;2023-02-27T07:33:55;-0.20;98.10
55064;DHT22;40963;52.168;21.296;2023-02-27T07:36:20;-0.10;97.30
55064;DHT22;40963;52.168;21.296;2023-02-27T07:38:46;-0.10;96.80
55064;DHT22;40963;52.168;21.296;2023-02-27T07:41:12;-0.10;95.80
55064;DHT22;40963;52.168;21.296;2023-02-27T07:43:38;0.00;94.50
55064;DHT22;40963;52.168;21.296;2023-02-27T07:46:04;0.00;94.10
55064;DHT22;40963;52.168;21.296;2023-02-27T07:48:30;0.10;93.90
55064;DHT22;40963;52.168;21.296;2023-02-27T07:50:56;0.10;92.80
55064;DHT22;40963;52.168;21.296;2023-02-27T07:53:22;0.20;92.70
55064;DHT22;40963;52.168;21.296;2023-02-27T07:55:47;0.30;91.60
55064;DHT22;40963;52.168;21.296;2023-02-27T07:58:13;0.40;90.80
55064;DHT22;40963;52.168;21.296;2023-02-27T08:00:39;0.40;89.60
55064;DHT22;40963;52.168;21.296;2023-02-27T08:03:04;0.40;88.10
55064;DHT22;40963;52.168;21.296;2023-02-27T08:05:30;0.50;89.50
55064;DHT22;40963;52.168;21.296;2023-02-27T08:07:56;0.60;88.70
55064;DHT22;40963;52.168;21.296;2023-02-27T08:10:22;0.60;85.80
55064;DHT22;40963;52.168;21.296;2023-02-27T08:12:48;0.70;85.80
55064;DHT22;40963;52.168;21.296;2023-02-27T08:15:13;0.70;84.10
55064;DHT22;40963;52.168;21.296;2023-02-27T08:17:39;0.80;84.00
55064;DHT22;40963;52.168;21.296;2023-02-27T08:20:05;0.80;83.20
55064;DHT22;40963;52.168;21.296;2023-02-27T08:22:36;0.90;83.40
55064;DHT22;40963;52.168;21.296;2023-02-27T08:25:03;1.00;81.00
55064;DHT22;40963;52.168;21.296;2023-02-27T08:27:30;1.00;79.20
55064;DHT22;40963;52.168;21.296;2023-02-27T08:29:56;1.00;77.50
55064;DHT22;40963;52.168;21.296;2023-02-27T08:32:21;1.00;76.30
55064;DHT22;40963;52.168;21.296;2023-02-27T08:34:47;0.90;75.40
55064;DHT22;40963;52.168;21.296;2023-02-27T08:37:13;0.90;74.90
55064;DHT22;40963;52.168;21.296;2023-02-27T08:39:38;0.90;74.80
55064;DHT22;40963;52.168;21.296;2023-02-27T08:42:04;0.80;75.70
55064;DHT22;40963;52.168;21.296;2023-02-27T08:44:31;0.90;77.10
55064;DHT22;40963;52.168;21.296;2023-02-27T08:46:57;1.00;77.90
55064;DHT22;40963;52.168;21.296;2023-02-27T08:49:23;1.20;77.70
55064;DHT22;40963;52.168;21.296;2023-02-27T08:51:50;1.30;76.10
55064;DHT22;40963;52.168;21.296;2023-02-27T08:54:16;1.50;77.10
55064;DHT22;40963;52.168;21.296;2023-02-27T08:56:43;1.60;74.70
55064;DHT22;40963;52.168;21.296;2023-02-27T08:59:08;1.70;72.70
55064;DHT22;40963;52.168;21.296;2023-02-27T09:01:34;1.80;71.30
55064;DHT22;40963;52.168;21.296;2023-02-27T09:04:01;1.90;72.50
55064;DHT22;40963;52.168;21.296;2023-02-27T09:06:27;1.80;68.90
55064;DHT22;40963;52.168;21.296;2023-02-27T09:08:54;1.70;68.70
55064;DHT22;40963;52.168;21.296;2023-02-27T09:11:20;1.60;68.90
55064;DHT22;40963;52.168;21.296;2023-02-27T09:13:46;1.50;69.30
55064;DHT22;40963;52.168;21.296;2023-02-27T09:16:12;1.40;70.20
55064;DHT22;40963;52.168;21.296;2023-02-27T09:18:37;1.30;70.90
55064;DHT22;40963;52.168;21.296;2023-02-27T09:21:03;1.20;71.80
55064;DHT22;40963;52.168;21.296;2023-02-27T09:23:29;1.20;72.30
55064;DHT22;40963;52.168;21.296;2023-02-27T09:25:55;1.10;73.30
55064;DHT22;40963;52.168;21.296;2023-02-27T09:28:20;1.10;74.10
55064;DHT22;40963;52.168;21.296;2023-02-27T09:30:46;1.10;74.80
55064;DHT22;40963;52.168;21.296;2023-02-27T09:33:12;1.00;76.00
55064;DHT22;40963;52.168;21.296;2023-02-27T09:35:39;0.90;76.40
55064;DHT22;40963;52.168;21.296;2023-02-27T09:38:05;0.90;76.80
55064;DHT22;40963;52.168;21.296;2023-02-27T09:40:38;0.80;75.30
55064;DHT22;40963;52.168;21.296;2023-02-27T09:43:13;0.70;73.60
55064;DHT22;40963;52.168;21.296;2023-02-27T09:45:41;0.70;73.00
55064;DHT22;40963;52.168;21.296;2023-02-27T09:48:11;0.70;73.90
55064;DHT22;40963;52.168;21.296;2023-02-27T09:50:43;0.70;74.80
55064;DHT22;40963;52.168;21.296;2023-02-27T09:55:53;0.80;76.20
55064;DHT22;40963;52.168;21.296;2023-02-27T10:00:57;0.80;75.00
55064;DHT22;40963;52.168;21.296;2023-02-27T10:08:50;0.90;74.70
55064;DHT22;40963;52.168;21.296;2023-02-27T10:11:31;0.90;74.80
55064;DHT22;40963;52.168;21.296;2023-02-27T10:14:35;0.90;74.40
55064;DHT22;40963;52.168;21.296;2023-02-27T10:17:05;0.90;74.70
55064;DHT22;40963;52.168;21.296;2023-02-27T10:19:37;0.90;73.30
55064;DHT22;40963;52.168;21.296;2023-02-27T10:22:05;0.90;73.00
55064;DHT22;40963;52.168;21.296;2023-02-27T10:24:43;1.00;73.60
55064;DHT22;40963;52.168;21.296;2023-02-27T10:27:16;1.00;73.10
55064;DHT22;40963;52.168;21.296;2023-02-27T10:29:43;1.00;72.60
55064;DHT22;40963;52.168;21.296;2023-02-27T10:34:54;0.90;73.70
55064;DHT22;40963;52.168;21.296;2023-02-27T10:37:22;0.80;73.60
55064;DHT22;40963;52.168;21.296;2023-02-27T10:39:55;0.80;74.70
55064;DHT22;40963;52.168;21.296;2023-02-27T10:42:23;0.80;75.40
55064;DHT22;40963;52.168;21.296;2023-02-27T10:44:49;0.80;76.10
55064;DHT22;40963;52.168;21.296;2023-02-27T10:47:21;0.80;75.50
55064;DHT22;40963;52.168;21.296;2023-02-27T10:49:47;0.80;75.30
55064;DHT22;40963;52.168;21.296;2023-02-27T10:52:14;0.80;73.50
55064;DHT22;40963;52.168;21.296;2023-02-27T10:54:42;0.70;73.50
55064;DHT22;40963;52.168;21.296;2023-02-27T10:57:26;0.70;73.90
55064;DHT22;40963;52.168;21.296;2023-02-27T11:00:00;0.70;74.30
55064;DHT22;40963;52.168;21.296;2023-02-27T11:02:38;0.80;74.90
55064;DHT22;40963;52.168;21.296;2023-02-27T11:05:15;0.80;75.40
55064;DHT22;40963;52.168;21.296;2023-02-27T11:07:43;0.80;73.90
55064;DHT22;40963;52.168;21.296;2023-02-27T11:10:21;0.80;72.70
55064;DHT22;40963;52.168;21.296;2023-02-27T11:13:04;0.80;72.10
55064;DHT22;40963;52.168;21.296;2023-02-27T11:15:34;0.80;72.50
55064;DHT22;40963;52.168;21.296;2023-02-27T11:18:26;0.80;73.30
55064;DHT22;40963;52.168;21.296;2023-02-27T11:20:53;0.90;74.00
55064;DHT22;40963;52.168;21.296;2023-02-27T11:23:23;0.90;72.90
55064;DHT22;40963;52.168;21.296;2023-02-27T11:25:49;0.90;72.00
55064;DHT22;40963;52.168;21.296;2023-02-27T11:31:06;0.90;71.80
55064;DHT22;40963;52.168;21.296;2023-02-27T11:33:49;0.90;71.60
55064;DHT22;40963;52.168;21.296;2023-02-27T11:36:16;0.80;71.50
55064;DHT22;40963;52.168;21.296;2023-02-27T11:38:52;0.80;71.40
55064;DHT22;40963;52.168;21.296;2023-02-27T11:41:20;0.80;71.60
55064;DHT22;40963;52.168;21.296;2023-02-27T11:43:53;0.80;72.20
55064;DHT22;40963;52.168;21.296;2023-02-27T11:46:22;0.80;72.30
55064;DHT22;40963;52.168;21.296;2023-02-27T11:48:52;0.70;72.50
55064;DHT22;40963;52.168;21.296;2023-02-27T11:54:14;0.70;72.50
55064;DHT22;40963;52.168;21.296;2023-02-27T11:56:48;0.70;72.50
55064;DHT22;40963;52.168;21.296;2023-02-27T11:59:31;0.70;73.00
55064;DHT22;40963;52.168;21.296;2023-02-27T12:05:13;0.80;72.40
55064;DHT22;40963;52.168;21.296;2023-02-27T12:07:45;0.80;72.40
55064;DHT22;40963;52.168;21.296;2023-02-27T12:10:19;0.80;72.00
55064;DHT22;40963;52.168;21.296;2023-02-27T12:13:05;0.80;72.80
55064;DHT22;40963;52.168;21.296;2023-02-27T12:15:47;0.80;73.50
55064;DHT22;40963;52.168;21.296;2023-02-27T12:18:43;0.80;74.00
55064;DHT22;40963;52.168;21.296;2023-02-27T12:21:29;0.80;74.90
55064;DHT22;40963;52.168;21.296;2023-02-27T12:26:35;0.80;75.10
55064;DHT22;40963;52.168;21.296;2023-02-27T12:36:40;0.70;76.90
55064;DHT22;40963;52.168;21.296;2023-02-27T12:39:16;0.70;77.50
55064;DHT22;40963;52.168;21.296;2023-02-27T12:45:12;0.70;77.90
55064;DHT22;40963;52.168;21.296;2023-02-27T12:48:02;0.70;79.20
55064;DHT22;40963;52.168;21.296;2023-02-27T12:56:08;0.80;79.70
55064;DHT22;40963;52.168;21.296;2023-02-27T12:58:41;0.90;79.70
55064;DHT22;40963;52.168;21.296;2023-02-27T13:01:22;0.90;79.20
55064;DHT22;40963;52.168;21.296;2023-02-27T13:04:34;0.90;79.00
55064;DHT22;40963;52.168;21.296;2023-02-27T13:07:24;0.90;78.50
55064;DHT22;40963;52.168;21.296;2023-02-27T13:09:56;0.90;78.30
55064;DHT22;40963;52.168;21.296;2023-02-27T13:15:11;0.90;77.90
55064;DHT22;40963;52.168;21.296;2023-02-27T13:20:42;0.90;77.60
55064;DHT22;40963;52.168;21.296;2023-02-27T13:23:42;0.80;77.60
55064;DHT22;40963;52.168;21.296;2023-02-27T13:26:34;0.80;77.40
55064;DHT22;40963;52.168;21.296;2023-02-27T13:29:00;0.80;77.50
55064;DHT22;40963;52.168;21.296;2023-02-27T13:31:47;0.80;78.00
55064;DHT22;40963;52.168;21.296;2023-02-27T13:34:33;0.80;77.90
55064;DHT22;40963;52.168;21.296;2023-02-27T13:37:05;0.70;78.20
55064;DHT22;40963;52.168;21.296;2023-02-27T13:47:36;0.80;78.70
55064;DHT22;40963;52.168;21.296;2023-02-27T13:52:48;0.80;79.60
55064;DHT22;40963;52.168;21.296;2023-02-27T13:55:28;0.80;79.10
55064;DHT22;40963;52.168;21.296;2023-02-27T13:57:57;0.80;78.50
55064;DHT22;40963;52.168;21.296;2023-02-27T14:00:31;0.70;79.00
55064;DHT22;40963;52.168;21.296;2023-02-27T14:05:42;0.70;80.00
55064;DHT22;40963;52.168;21.296;2023-02-27T14:10:39;0.60;79.80
55064;DHT22;40963;52.168;21.296;2023-02-27T14:16:11;0.60;80.30
55064;DHT22;40963;52.168;21.296;2023-02-27T14:22:00;0.60;80.70
55064;DHT22;40963;52.168;21.296;2023-02-27T14:24:34;0.60;80.90
55064;DHT22;40963;52.168;21.296;2023-02-27T14:27:03;0.60;81.20
55064;DHT22;40963;52.168;21.296;2023-02-27T14:29:31;0.60;81.20
55064;DHT22;40963;52.168;21.296;2023-02-27T14:32:04;0.60;81.20
55064;DHT22;40963;52.168;21.296;2023-02-27T14:34:35;0.60;80.90
55064;DHT22;40963;52.168;21.296;2023-02-27T14:37:05;0.60;81.20
55064;DHT22;40963;52.168;21.296;2023-02-27T14:39:34;0.60;80.90
55064;DHT22;40963;52.168;21.296;2023-02-27T14:42:06;0.60;81.10
55064;DHT22;40963;52.168;21.296;2023-02-27T14:44:43;0.50;81.10
55064;DHT22;40963;52.168;21.296;2023-02-27T14:47:14;0.50;80.90
55064;DHT22;40963;52.168;21.296;2023-02-27T14:49:45;0.50;81.10
55064;DHT22;40963;52.168;21.296;2023-02-27T14:52:38;0.50;81.10
55064;DHT22;40963;52.168;21.296;2023-02-27T14:57:51;0.60;81.80
55064;DHT22;40963;52.168;21.296;2023-02-27T15:05:58;0.50;80.90
55064;DHT22;40963;52.168;21.296;2023-02-27T15:08:32;0.60;81.10
55064;DHT22;40963;52.168;21.296;2023-02-27T15:10:59;0.50;80.80
55064;DHT22;40963;52.168;21.296;2023-02-27T15:13:31;0.50;80.90
55064;DHT22;40963;52.168;21.296;2023-02-27T15:21:30;0.60;81.70
55064;DHT22;40963;52.168;21.296;2023-02-27T15:24:04;0.60;81.30
55064;DHT22;40963;52.168;21.296;2023-02-27T15:26:38;0.60;80.80
55064;DHT22;40963;52.168;21.296;2023-02-27T15:29:05;0.60;80.80
55064;DHT22;40963;52.168;21.296;2023-02-27T15:31:32;0.60;80.60
55064;DHT22;40963;52.168;21.296;2023-02-27T15:34:01;0.50;80.00
55064;DHT22;40963;52.168;21.296;2023-02-27T15:36:32;0.50;80.60
55064;DHT22;40963;52.168;21.296;2023-02-27T15:39:20;0.50;80.80
55064;DHT22;40963;52.168;21.296;2023-02-27T15:41:51;0.50;81.10
55064;DHT22;40963;52.168;21.296;2023-02-27T15:44:25;0.50;81.50
55064;DHT22;40963;52.168;21.296;2023-02-27T15:46:52;0.50;81.60
55064;DHT22;40963;52.168;21.296;2023-02-27T15:49:21;0.50;81.70
55064;DHT22;40963;52.168;21.296;2023-02-27T15:51:58;0.50;81.50
55064;DHT22;40963;52.168;21.296;2023-02-27T15:54:25;0.50;82.00
55064;DHT22;40963;52.168;21.296;2023-02-27T15:56:55;0.50;81.90
55064;DHT22;40963;52.168;21.296;2023-02-27T15:59:21;0.50;81.90
55064;DHT22;40963;52.168;21.296;2023-02-27T16:01:47;0.50;82.30
55064;DHT22;40963;52.168;21.296;2023-02-27T16:04:21;0.50;82.50
55064;DHT22;40963;52.168;21.296;2023-02-27T16:07:04;0.40;82.10
55064;DHT22;40963;52.168;21.296;2023-02-27T16:09:35;0.40;82.60
55064;DHT22;40963;52.168;21.296;2023-02-27T16:14:42;0.50;83.70
55064;DHT22;40963;52.168;21.296;2023-02-27T16:17:50;0.40;82.70
55064;DHT22;40963;52.168;21.296;2023-02-27T16:20:40;0.40;82.90
55064;DHT22;40963;52.168;21.296;2023-02-27T16:23:24;0.40;83.20
55064;DHT22;40963;52.168;21.296;2023-02-27T16:31:35;0.40;83.00
55064;DHT22;40963;52.168;21.296;2023-02-27T16:36:38;0.40;82.60
55064;DHT22;40963;52.168;21.296;2023-02-27T16:39:05;0.40;82.30
55064;DHT22;40963;52.168;21.296;2023-02-27T16:41:33;0.40;81.90
55064;DHT22;40963;52.168;21.296;2023-02-27T16:43:59;0.40;82.10
55064;DHT22;40963;52.168;21.296;2023-02-27T16:46:25;0.40;82.40
55064;DHT22;40963;52.168;21.296;2023-02-27T16:48:53;0.40;82.50
55064;DHT22;40963;52.168;21.296;2023-02-27T16:51:21;0.50;82.40
55064;DHT22;40963;52.168;21.296;2023-02-27T16:53:49;0.50;82.50
55064;DHT22;40963;52.168;21.296;2023-02-27T16:56:16;0.50;82.10
55064;DHT22;40963;52.168;21.296;2023-02-27T16:58:42;0.50;82.00
55064;DHT22;40963;52.168;21.296;2023-02-27T17:01:09;0.50;82.30
55064;DHT22;40963;52.168;21.296;2023-02-27T17:03:36;0.50;82.30
55064;DHT22;40963;52.168;21.296;2023-02-27T17:06:03;0.50;82.20
55064;DHT22;40963;52.168;21.296;2023-02-27T17:08:30;0.50;82.00
55064;DHT22;40963;52.168;21.296;2023-02-27T17:10:56;0.50;81.90
55064;DHT22;40963;52.168;21.296;2023-02-27T17:13:23;0.60;81.80
55064;DHT22;40963;52.168;21.296;2023-02-27T17:15:49;0.50;81.40
55064;DHT22;40963;52.168;21.296;2023-02-27T17:18:14;0.50;81.50
55064;DHT22;40963;52.168;21.296;2023-02-27T17:20:40;0.50;82.20
55064;DHT22;40963;52.168;21.296;2023-02-27T17:23:09;0.50;82.90
55064;DHT22;40963;52.168;21.296;2023-02-27T17:25:35;0.60;83.00
55064;DHT22;40963;52.168;21.296;2023-02-27T17:28:01;0.60;82.80
55064;DHT22;40963;52.168;21.296;2023-02-27T17:30:27;0.50;82.20
55064;DHT22;40963;52.168;21.296;2023-02-27T17:32:53;0.50;82.00
55064;DHT22;40963;52.168;21.296;2023-02-27T17:35:19;0.50;81.90
55064;DHT22;40963;52.168;21.296;2023-02-27T17:37:45;0.50;82.20
55064;DHT22;40963;52.168;21.296;2023-02-27T17:40:11;0.50;82.40
55064;DHT22;40963;52.168;21.296;2023-02-27T17:42:38;0.50;82.50
55064;DHT22;40963;52.168;21.296;2023-02-27T17:45:05;0.50;82.40
55064;DHT22;40963;52.168;21.296;2023-02-27T17:47:32;0.50;82.20
55064;DHT22;40963;52.168;21.296;2023-02-27T17:49:59;0.50;82.30
55064;DHT22;40963;52.168;21.296;2023-02-27T17:52:25;0.50;82.50
55064;DHT22;40963;52.168;21.296;2023-02-27T17:54:52;0.60;82.40
55064;DHT22;40963;52.168;21.296;2023-02-27T17:57:18;0.50;82.20
55064;DHT22;40963;52.168;21.296;2023-02-27T17:59:43;0.50;82.20
55064;DHT22;40963;52.168;21.296;2023-02-27T18:02:13;0.60;82.10
55064;DHT22;40963;52.168;21.296;2023-02-27T18:04:39;0.60;82.00
55064;DHT22;40963;52.168;21.296;2023-02-27T18:07:06;0.60;81.50
55064;DHT22;40963;52.168;21.296;2023-02-27T18:09:32;0.60;81.30
55064;DHT22;40963;52.168;21.296;2023-02-27T18:11:57;0.60;81.10
55064;DHT22;40963;52.168;21.296;2023-02-27T18:14:24;0.60;81.10
55064;DHT22;40963;52.168;21.296;2023-02-27T18:16:50;0.60;80.80
55064;DHT22;40963;52.168;21.296;2023-02-27T18:19:16;0.60;80.70
55064;DHT22;40963;52.168;21.296;2023-02-27T18:21:42;0.60;80.70
55064;DHT22;40963;52.168;21.296;2023-02-27T18:24:12;0.60;81.20
55064;DHT22;40963;52.168;21.296;2023-02-27T18:26:38;0.60;81.40
55064;DHT22;40963;52.168;21.296;2023-02-27T18:29:06;0.60;81.10